Time;durP1;ratioP1;P1;durP2;ratioP2;P2;SDS_P1;SDS_P2;PMS_P1;PMS_P2;Temp;Humidity;BMP_temperature;BMP_pressure;BME280_temperature;BME280_humidity;BME280_pressure;Samples;Min_cycle;Max_cycle;Signal;HPM_P1;HPM_P2
2024/01/29 00:00:49;;;;;;;6.33;5.73;;;;;;;1.88;100.00;102276.19;4988459;28;20030;-65
2024/01/29 00:03:14;;;;;;;6.90;5.63;;;;;;;1.85;100.00;102271.72;4989691;28;20022;-65
2024/01/29 00:05:39;;;;;;;7.90;5.43;;;;;;;1.83;100.00;102270.66;4972723;28;20121;-65
2024/01/29 00:08:05;;;;;;;6.90;5.40;;;;;;;1.80;100.00;102267.81;4979423;28;20034;-65
2024/01/29 00:10:30;;;;;;;6.83;5.13;;;;;;;1.80;100.00;102267.81;4988845;28;20025;-65
2024/01/29 00:12:55;;;;;;;7.70;5.87;;;;;;;1.80;100.00;102272.91;4989326;28;20535;-65
2024/01/29 00:15:21;;;;;;;6.00;5.40;;;;;;;1.84;100.00;102268.97;4988529;28;20030;-65
2024/01/29 00:17:46;;;;;;;6.60;5.37;;;;;;;1.86;100.00;102263.25;4989107;28;20030;-65
2024/01/29 00:20:11;;;;;;;7.10;5.47;;;;;;;1.90;100.00;102265.34;5000140;28;20053;-65
2024/01/29 00:22:37;;;;;;;7.43;5.63;;;;;;;1.93;100.00;102272.38;4988317;28;20390;-65
2024/01/29 00:25:02;;;;;;;6.80;4.93;;;;;;;1.98;100.00;102265.16;4987539;28;20316;-64
2024/01/29 00:27:27;;;;;;;8.90;4.77;;;;;;;1.99;100.00;102275.50;4988679;28;20038;-65
2024/01/29 00:29:53;;;;;;;6.63;5.47;;;;;;;2.04;100.00;102270.78;4987870;28;20703;-65
2024/01/29 00:32:18;;;;;;;6.43;5.33;;;;;;;2.05;100.00;102259.81;4989192;28;20041;-65
2024/01/29 00:34:44;;;;;;;7.20;4.83;;;;;;;2.06;100.00;102264.16;5002927;28;20117;-65
2024/01/29 00:37:09;;;;;;;7.83;5.37;;;;;;;2.08;100.00;102259.19;4989037;28;20054;-65
2024/01/29 00:39:34;;;;;;;7.00;4.97;;;;;;;2.10;100.00;102263.69;4983248;28;20407;-65
2024/01/29 00:41:59;;;;;;;7.40;5.27;;;;;;;2.12;100.00;102257.03;4990097;28;20022;-65
2024/01/29 00:44:25;;;;;;;8.50;5.33;;;;;;;2.14;100.00;102265.72;4985128;28;20030;-65
2024/01/29 00:46:50;;;;;;;7.03;5.00;;;;;;;2.16;100.00;102264.22;4981623;28;20026;-65
2024/01/29 00:49:15;;;;;;;6.20;5.13;;;;;;;2.15;100.00;102261.53;4983338;28;20037;-65
2024/01/29 00:51:41;;;;;;;7.33;5.53;;;;;;;2.21;100.00;102250.94;4977411;28;20038;-65
2024/01/29 00:54:06;;;;;;;5.87;4.60;;;;;;;2.28;100.00;102258.41;4989288;28;20038;-64
2024/01/29 00:56:31;;;;;;;6.13;4.77;;;;;;;2.32;100.00;102250.22;5008518;28;20028;-65
2024/01/29 00:58:57;;;;;;;5.67;4.67;;;;;;;2.33;100.00;102256.25;4975275;28;20033;-65
2024/01/29 01:01:22;;;;;;;5.50;5.00;;;;;;;2.31;100.00;102252.66;4988066;28;20026;-65
2024/01/29 01:03:47;;;;;;;6.40;5.20;;;;;;;2.32;100.00;102250.22;4987212;28;20050;-65
2024/01/29 01:06:12;;;;;;;7.70;6.07;;;;;;;2.32;100.00;102260.44;4975909;28;20022;-65
2024/01/29 01:08:38;;;;;;;6.87;5.20;;;;;;;2.33;100.00;102269.94;4968417;28;20048;-65
2024/01/29 01:11:03;;;;;;;6.60;4.97;;;;;;;2.30;100.00;102272.25;4968973;28;20388;-64
2024/01/29 01:13:29;;;;;;;6.20;5.13;;;;;;;2.28;100.00;102278.88;4986327;28;20101;-65
2024/01/29 01:15:54;;;;;;;7.37;5.47;;;;;;;2.26;100.00;102285.50;4989170;28;20026;-65
2024/01/29 01:18:20;;;;;;;7.90;4.83;;;;;;;2.23;100.00;102285.25;4975675;28;20018;-64
2024/01/29 01:20:45;;;;;;;6.90;5.63;;;;;;;2.21;100.00;102286.75;4988148;28;20034;-65
2024/01/29 01:23:10;;;;;;;9.07;5.47;;;;;;;2.15;100.00;102285.47;4982869;28;20027;-65
2024/01/29 01:25:36;;;;;;;7.27;5.57;;;;;;;2.15;100.00;102293.13;4981521;28;20104;-65
2024/01/29 01:28:01;;;;;;;6.80;5.17;;;;;;;2.10;100.00;102291.81;4987044;28;20073;-64
2024/01/29 01:30:26;;;;;;;9.60;5.70;;;;;;;2.09;100.00;102287.44;4987402;28;20026;-65
2024/01/29 01:32:51;;;;;;;6.87;5.27;;;;;;;2.06;100.00;102282.06;4969690;28;20463;-65
2024/01/29 01:35:17;;;;;;;7.80;4.87;;;;;;;2.05;100.00;102285.41;4987562;28;20076;-65
2024/01/29 01:37:42;;;;;;;7.37;5.83;;;;;;;2.07;100.00;102283.84;4984829;28;20060;-65
2024/01/29 01:40:08;;;;;;;6.97;5.60;;;;;;;2.07;100.00;102288.97;4991104;28;20104;-65
2024/01/29 01:42:34;;;;;;;6.83;5.50;;;;;;;2.06;100.00;102284.63;4985978;28;20026;-65
2024/01/29 01:44:59;;;;;;;6.03;5.27;;;;;;;2.08;100.00;102284.75;4986897;28;20033;-65
2024/01/29 01:47:25;;;;;;;7.73;6.13;;;;;;;2.06;100.00;102288.81;4973885;28;20553;-65
2024/01/29 01:49:51;;;;;;;6.23;5.60;;;;;;;2.02;100.00;102287.66;4979141;28;20061;-65
2024/01/29 01:52:19;;;;;;;7.53;5.47;;;;;;;2.00;100.00;102291.72;4986984;28;20053;-65
2024/01/29 01:54:45;;;;;;;8.40;5.90;;;;;;;1.98;100.00;102293.28;4986961;28;20038;-65
2024/01/29 01:57:11;;;;;;;8.13;6.70;;;;;;;1.97;100.00;102296.56;4994612;28;20101;-65
2024/01/29 01:59:38;;;;;;;6.83;5.83;;;;;;;1.95;100.00;102298.09;4978778;28;20069;-65
2024/01/29 02:02:04;;;;;;;7.97;5.57;;;;;;;1.92;100.00;102294.47;4973717;28;20076;-65
2024/01/29 02:04:29;;;;;;;7.20;5.17;;;;;;;1.94;100.00;102298.84;4975967;28;20018;-64
2024/01/29 02:06:55;;;;;;;9.27;5.67;;;;;;;1.91;100.00;102282.47;4985306;28;20030;-64
2024/01/29 02:09:20;;;;;;;7.80;6.43;;;;;;;1.90;100.00;102290.91;4987962;28;20450;-65
2024/01/29 02:11:46;;;;;;;7.40;6.00;;;;;;;1.91;100.00;102292.69;4981646;28;20504;-64
2024/01/29 02:14:11;;;;;;;7.37;5.93;;;;;;;1.95;100.00;102285.31;4981218;28;20033;-65
2024/01/29 02:16:36;;;;;;;7.17;5.83;;;;;;;2.01;100.00;102283.31;4980350;28;20031;-65
2024/01/29 02:19:14;;;;;;;6.17;5.47;;;;;;;2.03;100.00;102292.91;4982234;28;20038;-64
2024/01/29 02:21:40;;;;;;;7.47;5.77;;;;;;;2.03;100.00;102295.47;5006972;28;20030;-64
2024/01/29 02:24:05;;;;;;;7.67;5.57;;;;;;;2.01;100.00;102283.31;4978389;28;20045;-65
2024/01/29 02:26:30;;;;;;;7.13;5.73;;;;;;;2.01;100.00;102285.88;4987161;28;20038;-64
2024/01/29 02:28:55;;;;;;;7.00;5.60;;;;;;;1.99;100.00;102285.72;4972982;28;20027;-65
2024/01/29 02:31:21;;;;;;;9.17;6.43;;;;;;;1.99;100.00;102284.81;4986586;28;20026;-64
2024/01/29 02:33:46;;;;;;;7.13;5.47;;;;;;;1.99;100.00;102290.84;4985146;28;20038;-65
2024/01/29 02:36:11;;;;;;;6.60;5.70;;;;;;;1.97;100.00;102289.81;4986718;28;20026;-65
2024/01/29 02:38:37;;;;;;;7.60;6.60;;;;;;;1.95;100.00;102285.31;4984536;28;20026;-65
2024/01/29 02:41:02;;;;;;;7.73;6.83;;;;;;;1.92;100.00;102278.25;4986564;28;20022;-65
2024/01/29 02:43:28;;;;;;;6.10;5.50;;;;;;;1.93;100.00;102280.06;4982353;28;20031;-65
2024/01/29 02:45:53;;;;;;;7.50;5.80;;;;;;;1.92;100.00;102289.38;4988166;28;20045;-65
2024/01/29 02:48:18;;;;;;;9.03;5.93;;;;;;;1.94;100.00;102296.31;4976192;28;20092;-64
2024/01/29 02:50:43;;;;;;;6.73;5.97;;;;;;;1.96;100.00;102295.66;4989442;28;20442;-64
2024/01/29 02:53:09;;;;;;;8.17;6.00;;;;;;;1.98;100.00;102291.59;4978242;28;20030;-65
2024/01/29 02:55:34;;;;;;;7.73;6.63;;;;;;;2.03;100.00;102287.78;4998120;28;20021;-65
2024/01/29 02:57:59;;;;;;;7.23;5.93;;;;;;;2.01;100.00;102279.09;4983673;28;20444;-65
2024/01/29 03:00:24;;;;;;;7.23;5.70;;;;;;;2.04;100.00;102283.56;4986900;28;20018;-65
2024/01/29 03:02:50;;;;;;;9.03;5.73;;;;;;;2.07;100.00;102288.97;4990184;28;20018;-65
2024/01/29 03:05:15;;;;;;;6.27;5.67;;;;;;;2.07;100.00;102281.28;4981501;28;20510;-64
2024/01/29 03:07:40;;;;;;;7.60;5.77;;;;;;;2.05;100.00;102287.94;4994027;28;20030;-64
2024/01/29 03:10:06;;;;;;;10.10;6.27;;;;;;;2.02;100.00;102282.53;4985451;28;20029;-65
2024/01/29 03:12:31;;;;;;;7.57;6.23;;;;;;;2.01;100.00;102273.09;4989723;28;20056;-65
2024/01/29 03:14:57;;;;;;;7.37;6.20;;;;;;;2.00;100.00;102282.41;4984638;28;20026;-65
2024/01/29 03:17:22;;;;;;;6.07;4.87;;;;;;;1.99;100.00;102287.38;4975235;28;20030;-65
2024/01/29 03:19:47;;;;;;;9.70;6.50;;;;;;;1.95;100.00;102278.53;4983229;28;20041;-64
2024/01/29 03:22:13;;;;;;;6.17;5.57;;;;;;;1.90;100.00;102280.69;4989904;28;20068;-64
2024/01/29 03:24:38;;;;;;;6.70;6.00;;;;;;;1.90;100.00;102282.34;4990347;28;20434;-64
2024/01/29 03:27:03;;;;;;;6.90;6.17;;;;;;;1.88;100.00;102282.19;4989698;28;20034;-64
2024/01/29 03:29:29;;;;;;;7.43;5.90;;;;;;;1.84;100.00;102287.78;4979344;28;20075;-64
2024/01/29 03:31:54;;;;;;;6.63;5.93;;;;;;;1.78;100.00;102285.56;4973542;28;20112;-65
2024/01/29 03:34:20;;;;;;;6.83;5.80;;;;;;;1.74;100.00;102283.50;4988120;28;20174;-64
2024/01/29 03:36:46;;;;;;;6.83;5.80;;;;;;;1.73;100.00;102278.22;4973080;28;20037;-64
2024/01/29 03:39:12;;;;;;;6.57;5.93;;;;;;;1.72;100.00;102289.22;4988919;28;20090;-64
2024/01/29 03:41:37;;;;;;;7.97;5.83;;;;;;;1.73;100.00;102283.34;4989349;28;20149;-65
2024/01/29 03:44:02;;;;;;;7.63;5.87;;;;;;;1.70;100.00;102290.75;4991513;28;20521;-65
2024/01/29 03:46:28;;;;;;;7.40;5.73;;;;;;;1.64;100.00;102291.97;4982677;28;20083;-65
2024/01/29 03:48:53;;;;;;;8.17;5.80;;;;;;;1.61;100.00;102291.69;4987118;28;20126;-64
2024/01/29 03:51:18;;;;;;;7.03;5.53;;;;;;;1.61;100.00;102294.25;4989360;28;20382;-65
2024/01/29 03:53:44;;;;;;;9.03;6.67;;;;;;;1.58;100.00;102301.66;4975565;28;20505;-65
2024/01/29 03:56:09;;;;;;;7.40;6.30;;;;;;;1.55;100.00;102296.22;4973569;28;20034;-64
2024/01/29 03:58:34;;;;;;;6.97;6.30;;;;;;;1.56;100.00;102303.16;4983606;28;20450;-64
2024/01/29 04:01:00;;;;;;;8.10;6.40;;;;;;;1.53;100.00;102303.75;4989178;28;20450;-65
2024/01/29 04:03:25;;;;;;;6.93;6.20;;;;;;;1.53;100.00;102300.34;4988225;28;20026;-65
2024/01/29 04:05:50;;;;;;;8.40;6.27;;;;;;;1.53;100.00;102290.09;4978572;28;20133;-64
2024/01/29 04:08:15;;;;;;;6.53;5.90;;;;;;;1.53;100.00;102297.78;4976564;28;20028;-64
2024/01/29 04:10:41;;;;;;;7.33;6.00;;;;;;;1.50;100.00;102297.47;4987851;28;20033;-65
2024/01/29 04:13:06;;;;;;;8.90;5.70;;;;;;;1.49;100.00;102305.91;4987530;28;20026;-65
2024/01/29 04:15:31;;;;;;;8.90;5.63;;;;;;;1.49;100.00;102295.69;4993423;28;20423;-64
2024/01/29 04:17:56;;;;;;;7.13;6.43;;;;;;;1.47;100.00;102298.09;4985679;28;20030;-64
2024/01/29 04:20:22;;;;;;;9.60;6.57;;;;;;;1.48;100.00;102298.97;4970360;28;20038;-65
2024/01/29 04:22:48;;;;;;;9.27;6.00;;;;;;;1.44;100.00;102293.59;4986245;28;20556;-64
2024/01/29 04:25:13;;;;;;;7.87;6.10;;;;;;;1.42;100.00;102305.31;4978897;28;20349;-65
2024/01/29 04:27:38;;;;;;;8.53;6.50;;;;;;;1.41;100.00;102295.88;4980054;28;20023;-64
2024/01/29 04:30:04;;;;;;;7.47;5.83;;;;;;;1.39;100.00;102305.03;4978044;28;20018;-64
2024/01/29 04:32:30;;;;;;;7.50;6.13;;;;;;;1.37;100.00;102296.34;4987320;28;20023;-64
2024/01/29 04:34:55;;;;;;;6.30;5.70;;;;;;;1.37;100.00;102311.66;4972084;28;20046;-64
2024/01/29 04:37:20;;;;;;;8.10;6.43;;;;;;;1.36;100.00;102303.84;4980679;28;20422;-64
2024/01/29 04:39:45;;;;;;;6.40;5.70;;;;;;;1.37;100.00;102310.78;4983468;28;20032;-65
2024/01/29 04:42:11;;;;;;;9.67;6.47;;;;;;;1.35;100.00;102313.16;4979693;28;20029;-65
2024/01/29 04:44:37;;;;;;;9.03;6.30;;;;;;;1.34;100.00;102316.50;4986045;28;20423;-64
2024/01/29 04:47:02;;;;;;;9.87;6.23;;;;;;;1.34;100.00;102310.47;4983372;28;20030;-65
2024/01/29 04:49:27;;;;;;;7.40;5.70;;;;;;;1.32;100.00;102307.78;4977020;28;20046;-65
2024/01/29 04:51:53;;;;;;;12.17;7.17;;;;;;;1.30;100.00;102311.84;4981325;28;20499;-65
2024/01/29 04:54:18;;;;;;;10.53;6.67;;;;;;;1.27;100.00;102311.56;4985690;28;20033;-65
2024/01/29 04:56:43;;;;;;;7.67;6.83;;;;;;;1.26;100.00;102308.09;4997461;28;20054;-64
2024/01/29 04:59:08;;;;;;;9.67;6.47;;;;;;;1.24;100.00;102313.84;4983908;28;20049;-64
2024/01/29 05:01:34;;;;;;;8.07;6.23;;;;;;;1.21;100.00;102308.44;4978787;28;20042;-64
2024/01/29 05:04:00;;;;;;;7.17;6.17;;;;;;;1.16;100.00;102311.47;5000336;28;20048;-65
2024/01/29 05:06:25;;;;;;;7.37;6.43;;;;;;;1.11;100.00;102305.03;4988019;28;20141;-65
2024/01/29 05:08:51;;;;;;;9.50;6.77;;;;;;;1.08;100.00;102305.63;4974749;28;20543;-65
2024/01/29 05:11:16;;;;;;;7.30;6.17;;;;;;;1.06;100.00;102304.56;4987690;28;20037;-64
2024/01/29 05:13:42;;;;;;;8.83;6.00;;;;;;;1.04;100.00;102300.09;4986868;28;20064;-64
2024/01/29 05:16:10;;;;;;;6.97;5.70;;;;;;;1.00;100.00;102309.13;4987847;28;20030;-64
2024/01/29 05:18:35;;;;;;;6.93;5.43;;;;;;;0.99;100.00;102314.09;4986733;28;20026;-64
2024/01/29 05:21:00;;;;;;;6.47;5.40;;;;;;;0.94;100.00;102311.06;4987578;28;20036;-64
2024/01/29 05:23:25;;;;;;;6.70;6.00;;;;;;;0.92;100.00;102313.47;4973394;28;20037;-64
2024/01/29 05:25:51;;;;;;;9.87;6.13;;;;;;;0.89;100.00;102317.41;4987321;28;20064;-65
2024/01/29 05:28:16;;;;;;;9.03;7.17;;;;;;;0.85;100.00;102311.09;4985538;28;20541;-65
2024/01/29 05:30:41;;;;;;;8.67;7.60;;;;;;;0.85;100.00;102310.22;4986485;28;20030;-64
2024/01/29 05:33:07;;;;;;;7.50;6.20;;;;;;;0.83;100.00;102307.50;4986864;28;20054;-64
2024/01/29 05:35:32;;;;;;;8.60;6.43;;;;;;;0.82;100.00;102306.63;4987664;28;20182;-64
2024/01/29 05:37:57;;;;;;;7.60;5.93;;;;;;;0.83;100.00;102310.03;4999512;28;20025;-64
2024/01/29 05:40:22;;;;;;;7.07;6.30;;;;;;;0.83;100.00;102310.94;4986413;28;20029;-65
2024/01/29 05:42:52;;;;;;;8.57;6.70;;;;;;;0.85;100.00;102313.66;4983256;28;20581;-64
2024/01/29 05:45:18;;;;;;;8.17;6.30;;;;;;;0.86;100.00;102309.44;4977336;28;20026;-64
2024/01/29 05:47:43;;;;;;;8.13;6.30;;;;;;;0.87;100.00;102318.91;4986799;28;20054;-65
2024/01/29 05:50:09;;;;;;;8.37;6.33;;;;;;;0.88;100.00;102324.16;4972352;28;20065;-65
2024/01/29 05:52:35;;;;;;;8.00;6.17;;;;;;;0.88;100.00;102326.69;4986817;28;20045;-64
2024/01/29 05:55:01;;;;;;;8.53;5.77;;;;;;;0.92;100.00;102315.13;4995980;28;20108;-64
2024/01/29 05:57:27;;;;;;;6.40;5.53;;;;;;;0.98;100.00;102315.72;4975154;28;20032;-64
2024/01/29 05:59:53;;;;;;;8.03;5.67;;;;;;;1.04;100.00;102317.97;4977083;28;20023;-64
2024/01/29 06:02:18;;;;;;;6.17;5.57;;;;;;;1.05;100.00;102322.31;4985709;28;20041;-64
2024/01/29 06:04:43;;;;;;;7.23;5.80;;;;;;;1.06;100.00;102327.56;4968345;28;20019;-64
2024/01/29 06:07:08;;;;;;;7.33;5.97;;;;;;;1.08;100.00;102333.72;4969975;28;20030;-64
2024/01/29 06:09:34;;;;;;;7.90;5.87;;;;;;;1.12;100.00;102334.91;4986116;28;20411;-64
2024/01/29 06:11:59;;;;;;;6.30;5.70;;;;;;;1.14;100.00;102341.06;4986680;28;20026;-64
2024/01/29 06:14:25;;;;;;;7.27;6.00;;;;;;;1.18;100.00;102325.28;4978687;28;20367;-64
2024/01/29 06:16:51;;;;;;;6.70;5.93;;;;;;;1.26;100.00;102328.53;4976017;28;20030;-65
2024/01/29 06:19:17;;;;;;;8.83;6.47;;;;;;;1.30;100.00;102324.63;4983756;28;20146;-64
2024/01/29 06:21:46;;;;;;;8.40;6.40;;;;;;;1.33;100.00;102335.16;4983953;28;20041;-65
2024/01/29 06:24:12;;;;;;;9.50;6.10;;;;;;;1.38;100.00;102344.13;4974650;28;20438;-64
2024/01/29 06:26:37;;;;;;;7.80;6.43;;;;;;;1.42;100.00;102330.00;4977018;28;20026;-64
2024/01/29 06:29:03;;;;;;;8.07;6.67;;;;;;;1.46;100.00;102341.41;4987281;28;20030;-64
2024/01/29 06:31:28;;;;;;;6.80;6.10;;;;;;;1.44;100.00;102331.91;4986204;28;20033;-65
2024/01/29 06:33:54;;;;;;;7.73;6.20;;;;;;;1.48;100.00;102344.97;4982295;28;20058;-65
2024/01/29 06:36:20;;;;;;;7.63;6.83;;;;;;;1.49;100.00;102346.78;4979471;28;20057;-64
2024/01/29 06:38:46;;;;;;;7.97;6.97;;;;;;;1.48;100.00;102344.97;4986513;28;20093;-64
2024/01/29 06:41:22;;;;;;;7.97;6.33;;;;;;;1.51;100.00;102345.28;4988410;28;20034;-64
2024/01/29 06:43:48;;;;;;;6.33;5.53;;;;;;;1.54;100.00;102345.56;4987781;28;20430;-64
2024/01/29 06:46:13;;;;;;;7.20;5.97;;;;;;;1.55;100.00;102349.91;4980608;28;20550;-65
2024/01/29 06:48:38;;;;;;;10.73;6.77;;;;;;;1.51;100.00;102355.50;4983035;28;20061;-64
2024/01/29 06:51:04;;;;;;;8.73;6.57;;;;;;;1.51;100.00;102350.41;4983665;28;20091;-64
2024/01/29 06:53:29;;;;;;;8.80;6.17;;;;;;;1.50;100.00;102351.13;4972515;28;20434;-64
2024/01/29 06:55:55;;;;;;;7.60;6.50;;;;;;;1.47;100.00;102350.84;4991467;28;20049;-64
2024/01/29 06:58:20;;;;;;;7.43;5.63;;;;;;;1.47;100.00;102354.31;4979350;28;20037;-64
2024/01/29 07:00:46;;;;;;;8.07;6.87;;;;;;;1.47;100.00;102350.84;4984023;28;20082;-63
2024/01/29 07:03:11;;;;;;;8.00;6.30;;;;;;;1.52;100.00;102354.72;4978357;28;20030;-64
2024/01/29 07:05:36;;;;;;;7.63;6.07;;;;;;;1.53;100.00;102354.00;4981473;28;20026;-63
2024/01/29 07:08:02;;;;;;;7.27;5.90;;;;;;;1.58;100.00;102362.09;4993143;28;20064;-63
2024/01/29 07:10:28;;;;;;;10.60;6.80;;;;;;;1.63;100.00;102361.75;4986198;28;20061;-64
2024/01/29 07:12:53;;;;;;;8.30;7.00;;;;;;;1.64;100.00;102362.63;4978546;28;20467;-63
2024/01/29 07:15:18;;;;;;;7.53;6.33;;;;;;;1.65;100.00;102365.38;4978612;28;20057;-64
2024/01/29 07:17:44;;;;;;;7.40;6.53;;;;;;;1.71;100.00;102379.47;4985001;28;20117;-64
2024/01/29 07:20:10;;;;;;;7.00;6.13;;;;;;;1.71;100.00;102374.34;4984131;28;20058;-64
2024/01/29 07:22:37;;;;;;;6.23;5.57;;;;;;;1.74;100.00;102382.28;4978564;28;20271;-64
2024/01/29 07:25:04;;;;;;;8.17;5.87;;;;;;;1.79;100.00;102383.63;4991293;28;20069;-64
2024/01/29 07:27:30;;;;;;;7.50;5.90;;;;;;;1.81;100.00;102387.22;4987036;28;20081;-64
2024/01/29 07:29:55;;;;;;;7.70;5.87;;;;;;;1.84;100.00;102387.50;4992253;28;20037;-64
2024/01/29 07:32:20;;;;;;;6.93;6.10;;;;;;;1.87;100.00;102387.78;4981082;28;20022;-64
2024/01/29 07:34:46;;;;;;;9.30;5.87;;;;;;;1.96;100.00;102391.97;4976518;28;20034;-64
2024/01/29 07:37:12;;;;;;;6.90;5.30;;;;;;;2.02;100.00;102393.41;4985999;28;20117;-64
2024/01/29 07:39:37;;;;;;;6.00;5.40;;;;;;;2.04;100.00;102385.88;4986909;28;20113;-64
2024/01/29 07:42:03;;;;;;;6.27;5.13;;;;;;;2.12;100.00;102394.28;4985313;28;20037;-64
2024/01/29 07:44:29;;;;;;;7.43;5.30;;;;;;;2.26;100.00;102387.84;4982859;28;20026;-64
2024/01/29 07:46:54;;;;;;;6.67;4.83;;;;;;;2.35;100.00;102386.13;4984768;28;20030;-64
2024/01/29 07:49:20;;;;;;;7.80;5.33;;;;;;;2.42;100.00;102390.13;4976485;28;20133;-64
2024/01/29 07:51:45;;;;;;;7.47;5.00;;;;;;;2.51;100.00;102400.31;4975308;28;20058;-64
2024/01/29 07:54:12;;;;;;;5.80;5.13;;;;;;;2.58;100.00;102392.41;4989191;28;20089;-64
2024/01/29 07:56:39;;;;;;;6.27;5.27;;;;;;;2.69;100.00;102400.16;4998449;28;20087;-64
2024/01/29 07:59:05;;;;;;;6.97;6.07;;;;;;;2.76;100.00;102408.53;4985221;28;20124;-64
2024/01/29 08:01:30;;;;;;;6.83;5.77;;;;;;;2.87;100.00;102396.69;5000288;28;20026;-64
2024/01/29 08:03:55;;;;;;;9.23;6.10;;;;;;;2.95;100.00;102407.56;4981158;28;20018;-64
2024/01/29 08:06:20;;;;;;;9.77;6.00;;;;;;;3.04;100.00;102404.94;4985762;28;20057;-64
2024/01/29 08:08:46;;;;;;;7.07;5.40;;;;;;;3.12;100.00;102409.09;4979244;28;20038;-64
2024/01/29 08:11:12;;;;;;;14.07;5.83;;;;;;;3.15;100.00;102415.25;4979092;28;20061;-64
2024/01/29 08:13:37;;;;;;;13.33;5.40;;;;;;;3.21;100.00;102405.53;4979049;28;20395;-64
2024/01/29 08:16:02;;;;;;;9.30;5.50;;;;;;;3.32;100.00;102409.94;4987981;28;20084;-64
2024/01/29 08:18:28;;;;;;;6.83;5.23;;;;;;;3.40;100.00;102405.44;4989043;28;20022;-64
2024/01/29 08:20:53;;;;;;;6.97;4.77;;;;;;;3.44;100.00;102411.75;4988796;28;20434;-64
2024/01/29 08:23:18;;;;;;;5.77;5.10;;;;;;;3.50;100.00;102406.25;4980638;28;20065;-64
2024/01/29 08:25:44;;;;;;;6.47;5.10;;;;;;;3.57;100.00;102419.75;4987408;28;20057;-64
2024/01/29 08:28:11;;;;;;;7.20;5.03;;;;;;;3.62;100.00;102420.13;4980572;28;20342;-64
2024/01/29 08:30:36;;;;;;;6.03;5.43;;;;;;;3.69;100.00;102413.84;4983392;28;20109;-64
2024/01/29 08:33:02;;;;;;;5.97;4.90;;;;;;;3.78;100.00;102413.75;4972316;28;20106;-65
2024/01/29 08:35:28;;;;;;;6.17;5.30;;;;;;;3.85;100.00;102421.19;4978225;28;20415;-64
2024/01/29 08:37:53;;;;;;;6.30;4.80;;;;;;;3.95;100.00;102421.22;4998428;28;20024;-64
2024/01/29 08:40:18;;;;;;;6.17;5.30;;;;;;;4.06;100.00;102417.00;4986870;28;20388;-65
2024/01/29 08:42:44;;;;;;;5.37;4.57;;;;;;;4.15;100.00;102421.09;4985752;28;20018;-64
2024/01/29 08:45:14;;;;;;;6.13;5.20;;;;;;;4.27;100.00;102411.84;4974232;28;20033;-64
2024/01/29 08:47:39;;;;;;;4.80;4.40;;;;;;;4.36;100.00;102418.50;4978885;28;20082;-65
2024/01/29 08:50:05;;;;;;;5.20;4.63;;;;;;;4.40;100.00;102418.00;4983271;28;20597;-64
2024/01/29 08:52:30;;;;;;;6.73;5.17;;;;;;;4.48;100.00;102422.09;4987334;28;20041;-65
2024/01/29 08:54:56;;;;;;;6.30;5.33;;;;;;;4.59;100.00;102425.53;4980073;28;20061;-64
2024/01/29 08:57:21;;;;;;;8.60;5.30;;;;;;;4.74;100.00;102422.44;5000634;28;20050;-65
2024/01/29 08:59:47;;;;;;;6.35;5.32;;;;;;;4.84;100.00;102421.53;4976590;28;20495;-65
2024/01/29 09:02:13;;;;;;;5.65;4.90;;;;;;;4.90;100.00;102422.91;4975986;28;20105;-65
2024/01/29 09:04:38;;;;;;;5.85;4.78;;;;;;;4.93;100.00;102418.00;4988472;28;20053;-65
2024/01/29 09:07:03;;;;;;;6.07;5.00;;;;;;;4.98;100.00;102420.97;4987260;28;20089;-64
2024/01/29 09:09:28;;;;;;;6.85;5.00;;;;;;;4.97;100.00;102418.25;4988441;28;20175;-65
2024/01/29 09:11:54;;;;;;;7.35;5.32;;;;;;;4.99;100.00;102419.28;4987945;28;20037;-64
2024/01/29 09:14:20;;;;;;;6.10;5.40;;;;;;;4.99;100.00;102412.47;4976195;28;20088;-65
2024/01/29 09:16:45;;;;;;;6.85;5.15;;;;;;;5.03;100.00;102411.03;4987554;28;20038;-65
2024/01/29 09:19:12;;;;;;;7.28;5.53;;;;;;;5.03;100.00;102409.38;4983403;28;20535;-65
2024/01/29 09:21:37;;;;;;;7.80;4.97;;;;;;;5.01;100.00;102405.78;4987336;28;20142;-64
2024/01/29 09:24:03;;;;;;;6.40;5.15;;;;;;;4.97;100.00;102414.00;4999732;28;20056;-65
2024/01/29 09:26:29;;;;;;;7.45;5.53;;;;;;;4.99;100.00;102407.34;4974687;28;20061;-65
2024/01/29 09:28:54;;;;;;;6.35;5.38;;;;;;;5.01;100.00;102415.16;4978127;28;20485;-64
2024/01/29 09:31:20;;;;;;;7.03;5.55;;;;;;;4.98;100.00;102412.34;4971218;28;20033;-65
2024/01/29 09:33:45;;;;;;;7.75;5.32;;;;;;;4.99;100.00;102416.69;4970935;28;20110;-64
2024/01/29 09:36:10;;;;;;;9.30;5.90;;;;;;;5.01;100.00;102416.06;4978817;28;20027;-65
2024/01/29 09:38:35;;;;;;;6.55;5.38;;;;;;;5.02;100.00;102423.00;4975149;28;20410;-65
2024/01/29 09:41:03;;;;;;;6.25;5.63;;;;;;;5.03;100.00;102423.91;4976760;28;20061;-65
2024/01/29 09:43:29;;;;;;;6.68;5.80;;;;;;;5.02;100.00;102423.00;4987170;28;20455;-64
2024/01/29 09:45:55;;;;;;;8.07;5.63;;;;;;;5.07;100.00;102430.19;4982240;28;20072;-64
2024/01/29 09:48:22;;;;;;;6.70;5.88;;;;;;;5.13;100.00;102426.41;4985747;28;20053;-65
2024/01/29 09:50:49;;;;;;;6.70;5.72;;;;;;;5.21;100.00;102437.31;4975942;28;20057;-65
2024/01/29 09:53:20;;;;;;;7.35;6.20;;;;;;;5.28;100.00;102442.19;4976504;28;20061;-64
2024/01/29 09:55:46;;;;;;;7.07;5.50;;;;;;;5.36;100.00;102439.31;4983856;28;20041;-65
2024/01/29 09:58:11;;;;;;;8.23;6.75;;;;;;;5.50;100.00;102443.88;4976814;28;20031;-65
2024/01/29 10:00:37;;;;;;;7.82;5.72;;;;;;;5.62;100.00;102438.78;4987298;28;20030;-64
2024/01/29 10:03:05;;;;;;;7.18;5.35;;;;;;;5.71;100.00;102446.31;4987003;28;20533;-64
2024/01/29 10:05:31;;;;;;;6.07;5.47;;;;;;;5.87;100.00;102452.66;4986429;28;20093;-64
2024/01/29 10:07:58;;;;;;;5.90;5.30;;;;;;;6.00;100.00;102446.78;4974096;28;20553;-65
2024/01/29 10:10:26;;;;;;;7.47;5.55;;;;;;;6.09;100.00;102447.53;4987157;28;20037;-65
2024/01/29 10:13:13;;;;;;;9.77;6.20;;;;;;;6.18;100.00;102457.63;4986808;28;20054;-65
2024/01/29 10:15:38;;;;;;;6.10;5.50;;;;;;;6.26;100.00;102455.59;4986729;28;20030;-65
2024/01/29 10:18:10;;;;;;;7.75;5.50;;;;;;;6.36;100.00;102462.38;4983172;28;20893;-65
2024/01/29 10:20:35;;;;;;;7.25;6.40;;;;;;;6.47;100.00;102455.44;4982037;28;20532;-65
2024/01/29 10:23:02;;;;;;;7.07;6.07;;;;;;;6.59;100.00;102466.66;4983927;28;20038;-65
2024/01/29 10:25:29;;;;;;;6.60;5.07;;;;;;;6.63;100.00;102459.16;4987231;28;20026;-65
2024/01/29 10:28:04;;;;;;;7.10;5.93;;;;;;;6.68;100.00;102466.44;4991714;28;20378;-65
2024/01/29 10:30:29;;;;;;;8.48;5.72;;;;;;;6.76;100.00;102463.53;4991052;28;20459;-65
2024/01/29 10:32:54;;;;;;;6.25;5.65;;;;;;;6.83;100.00;102470.94;4986575;28;20041;-65
2024/01/29 10:35:20;;;;;;;7.88;6.20;;;;;;;6.89;100.00;102470.50;4985541;28;20442;-65
2024/01/29 10:37:47;;;;;;;7.35;5.45;;;;;;;6.93;100.00;102469.94;4974411;28;20477;-65
2024/01/29 10:40:13;;;;;;;9.77;6.00;;;;;;;7.00;100.00;102469.59;4984467;28;20026;-65
2024/01/29 10:42:41;;;;;;;7.07;5.75;;;;;;;7.08;100.00;102470.16;4985884;28;20033;-65
2024/01/29 10:45:11;;;;;;;7.85;6.68;;;;;;;7.18;100.00;102466.56;4984392;28;20038;-65
2024/01/29 10:47:47;;;;;;;6.05;5.22;;;;;;;7.21;100.00;102470.25;4983117;28;20050;-65
2024/01/29 10:50:16;;;;;;;6.75;5.95;;;;;;;7.25;100.00;102473.06;4987093;28;20026;-65
2024/01/29 10:52:44;;;;;;;7.50;5.80;;;;;;;7.32;100.00;102472.72;4986540;28;20022;-65
2024/01/29 10:55:10;;;;;;;7.30;6.22;;;;;;;7.39;100.00;102474.06;4990759;28;20038;-65
2024/01/29 10:57:37;;;;;;;6.60;5.90;;;;;;;7.39;100.00;102468.91;4990750;28;20394;-65
2024/01/29 11:00:03;;;;;;;8.25;6.07;;;;;;;7.47;100.00;102466.84;4968435;28;20038;-65
2024/01/29 11:02:29;;;;;;;7.75;6.35;;;;;;;7.51;100.00;102468.88;4994567;28;20101;-65
2024/01/29 11:04:55;;;;;;;8.40;6.10;;;;;;;7.48;100.00;102474.72;4978861;28;20018;-65
2024/01/29 11:07:24;;;;;;;7.18;6.47;;;;;;;7.54;100.00;102466.50;4988664;28;20486;-65
2024/01/29 11:09:59;;;;;;;7.75;5.95;;;;;;;7.61;100.00;102470.44;4980009;28;20062;-65
2024/01/29 11:12:26;;;;;;;6.15;5.55;;;;;;;7.67;100.00;102465.69;4973480;28;20030;-65
2024/01/29 11:15:04;;;;;;;6.78;5.95;;;;;;;7.71;100.00;102464.22;4991379;28;20374;-65
2024/01/29 11:17:29;;;;;;;7.13;5.90;;;;;;;7.79;100.00;102470.78;4984204;28;20089;-65